createdAt,value
2023-01-09T00:01:39.663Z,7.91
2023-01-09T00:04:06.896Z,7.92
2023-01-09T00:06:33.691Z,7.89
2023-01-09T00:09:00.158Z,7.86
2023-01-09T00:11:26.878Z,7.86
2023-01-09T00:13:53.376Z,7.84
2023-01-09T00:16:19.833Z,7.83
2023-01-09T00:18:46.440Z,7.83
2023-01-09T00:21:13.382Z,7.83
2023-01-09T00:23:39.928Z,7.80
2023-01-09T00:26:08.933Z,7.80
2023-01-09T00:28:35.994Z,7.76
2023-01-09T00:31:03.992Z,7.74
2023-01-09T00:33:36.261Z,7.74
2023-01-09T00:36:02.981Z,7.70
2023-01-09T00:38:29.440Z,7.69
2023-01-09T00:40:56.371Z,7.71
2023-01-09T00:43:24.336Z,7.69
2023-01-09T00:45:51.007Z,7.69
2023-01-09T00:48:24.983Z,7.70
2023-01-09T00:50:52.040Z,7.65
2023-01-09T00:53:21.077Z,7.64
2023-01-09T00:55:47.487Z,7.64
2023-01-09T00:58:13.997Z,7.64
2023-01-09T01:00:40.468Z,7.65
2023-01-09T01:03:06.880Z,7.62
2023-01-09T01:05:51.875Z,7.65
2023-01-09T01:08:19.501Z,7.67
2023-01-09T01:10:47.174Z,7.66
2023-01-09T01:13:14.190Z,7.67
2023-01-09T01:15:42.930Z,7.67
2023-01-09T01:18:10.349Z,7.70
2023-01-09T01:20:37.095Z,7.68
2023-01-09T01:23:03.567Z,7.71
2023-01-09T01:25:29.970Z,7.71
2023-01-09T01:27:56.404Z,7.74
2023-01-09T01:30:22.875Z,7.77
2023-01-09T01:32:49.399Z,7.77
2023-01-09T01:35:15.916Z,7.78
2023-01-09T01:37:42.445Z,7.80
2023-01-09T01:40:10.441Z,7.81
2023-01-09T01:42:36.976Z,7.82
2023-01-09T01:45:13.678Z,7.84
2023-01-09T01:47:57.226Z,7.84
2023-01-09T01:50:49.530Z,7.83
2023-01-09T01:53:20.042Z,7.84
2023-01-09T01:56:05.348Z,7.84
2023-01-09T01:58:34.476Z,7.84
2023-01-09T02:01:01.242Z,7.85
2023-01-09T02:03:28.510Z,7.84
2023-01-09T02:05:55.121Z,7.86
2023-01-09T02:08:21.811Z,7.86
2023-01-09T02:10:49.394Z,7.86
2023-01-09T02:13:15.936Z,7.87
2023-01-09T02:16:17.837Z,7.87
2023-01-09T02:18:59.500Z,7.85
2023-01-09T02:21:45.556Z,7.87
2023-01-09T02:24:53.805Z,7.86
2023-01-09T02:28:01.020Z,7.86
2023-01-09T02:30:49.292Z,7.84
2023-01-09T02:33:50.832Z,7.86
2023-01-09T02:36:25.432Z,7.88
2023-01-09T02:39:14.999Z,7.88
2023-01-09T02:41:59.403Z,7.90
2023-01-09T02:44:30.666Z,7.92
2023-01-09T02:47:31.749Z,7.93
2023-01-09T02:50:00.661Z,7.93
2023-01-09T02:52:41.262Z,7.94
2023-01-09T02:55:10.657Z,7.93
2023-01-09T02:57:47.714Z,7.93
2023-01-09T03:00:42.016Z,7.98
2023-01-09T03:03:10.329Z,7.97
2023-01-09T03:05:44.853Z,7.98
2023-01-09T03:08:18.519Z,8.00
2023-01-09T03:11:07.708Z,8.00
2023-01-09T03:13:40.088Z,8.00
2023-01-09T03:16:08.745Z,8.01
2023-01-09T03:18:36.399Z,8.02
2023-01-09T03:21:03.393Z,8.02
2023-01-09T03:23:49.581Z,8.03
2023-01-09T03:26:16.065Z,8.03
2023-01-09T03:28:42.718Z,8.05
2023-01-09T03:31:09.331Z,8.05
2023-01-09T03:33:35.875Z,8.07
2023-01-09T03:36:02.561Z,8.07
2023-01-09T03:38:29.057Z,8.08
2023-01-09T03:40:55.651Z,8.09
2023-01-09T03:43:22.219Z,8.10
2023-01-09T03:45:48.707Z,8.09
2023-01-09T03:48:15.354Z,8.11
2023-01-09T03:50:45.818Z,8.10
2023-01-09T03:53:13.170Z,8.11
2023-01-09T03:55:40.904Z,8.11
2023-01-09T03:58:07.361Z,8.12
2023-01-09T04:00:33.804Z,8.11
2023-01-09T04:03:00.297Z,8.11
2023-01-09T04:05:26.830Z,8.11
2023-01-09T04:07:53.401Z,8.10
2023-01-09T04:10:19.940Z,8.09
2023-01-09T04:12:46.395Z,8.08
2023-01-09T04:15:12.945Z,8.10
2023-01-09T04:17:39.425Z,8.05
2023-01-09T04:20:06.403Z,8.05
2023-01-09T04:22:32.880Z,8.06
2023-01-09T04:24:59.357Z,8.05
2023-01-09T04:27:25.877Z,8.05
2023-01-09T04:29:52.338Z,8.06
2023-01-09T04:32:18.780Z,8.07
2023-01-09T04:34:45.270Z,8.07
2023-01-09T04:37:11.833Z,8.08
2023-01-09T04:39:38.509Z,8.09
2023-01-09T04:42:05.034Z,8.10
2023-01-09T04:44:31.466Z,8.09
2023-01-09T04:46:59.089Z,8.09
2023-01-09T04:49:25.655Z,8.08
2023-01-09T04:51:52.133Z,8.08
2023-01-09T04:54:18.658Z,8.09
2023-01-09T04:56:45.204Z,8.11
2023-01-09T04:59:11.887Z,8.12
2023-01-09T05:01:38.484Z,8.13
2023-01-09T05:04:05.278Z,8.15
2023-01-09T05:06:31.963Z,8.16
2023-01-09T05:08:58.538Z,8.16
2023-01-09T05:11:25.614Z,8.17
2023-01-09T05:13:53.008Z,8.19
2023-01-09T05:16:19.791Z,8.19
2023-01-09T05:18:46.228Z,8.22
2023-01-09T05:21:12.885Z,8.23
2023-01-09T05:23:39.475Z,8.22
2023-01-09T05:26:06.280Z,8.24
2023-01-09T05:28:33.135Z,8.24
2023-01-09T05:31:00.641Z,8.22
2023-01-09T05:33:27.177Z,8.22
2023-01-09T05:35:53.646Z,8.19
2023-01-09T05:38:20.166Z,8.18
2023-01-09T05:40:46.633Z,8.15
2023-01-09T05:43:13.187Z,8.14
2023-01-09T05:45:39.706Z,8.13
2023-01-09T05:48:06.517Z,8.14
2023-01-09T05:50:32.950Z,8.13
2023-01-09T05:52:59.467Z,8.12
2023-01-09T05:55:25.982Z,8.13
2023-01-09T05:57:52.497Z,8.12
2023-01-09T06:00:19.314Z,8.14
2023-01-09T06:02:45.875Z,8.14
2023-01-09T06:05:12.426Z,8.13
2023-01-09T06:07:40.699Z,8.14
2023-01-09T06:10:14.977Z,8.13
2023-01-09T06:12:44.727Z,8.13
2023-01-09T06:15:11.566Z,8.15
2023-01-09T06:17:38.069Z,8.17
2023-01-09T06:20:04.949Z,8.16
2023-01-09T06:22:31.395Z,8.17
2023-01-09T06:24:57.868Z,8.16
2023-01-09T06:27:24.346Z,8.17
2023-01-09T06:29:50.785Z,8.20
2023-01-09T06:32:17.308Z,8.20
2023-01-09T06:34:43.777Z,8.20
2023-01-09T06:37:10.328Z,8.20
2023-01-09T06:39:36.798Z,8.23
2023-01-09T06:42:03.475Z,8.24
2023-01-09T06:44:30.111Z,8.27
2023-01-09T06:46:56.586Z,8.28
2023-01-09T06:49:24.790Z,8.30
2023-01-09T06:51:51.657Z,8.27
2023-01-09T06:54:18.728Z,8.32
2023-01-09T06:56:45.417Z,8.31
2023-01-09T06:59:12.445Z,8.30
2023-01-09T07:01:39.799Z,8.30
2023-01-09T07:04:08.129Z,8.29
2023-01-09T07:06:34.727Z,8.31
2023-01-09T07:09:01.354Z,8.31
2023-01-09T07:11:27.823Z,8.29
2023-01-09T07:13:54.333Z,8.29
2023-01-09T07:16:20.860Z,8.31
2023-01-09T07:18:47.316Z,8.32
2023-01-09T07:21:14.000Z,8.33
2023-01-09T07:23:40.469Z,8.32
2023-01-09T07:26:06.926Z,8.31
2023-01-09T07:28:33.387Z,8.32
2023-01-09T07:31:02.572Z,8.29
2023-01-09T07:33:29.188Z,8.29
2023-01-09T07:35:56.707Z,8.28
2023-01-09T07:38:23.156Z,8.28
2023-01-09T07:40:49.682Z,8.28
2023-01-09T07:43:16.220Z,8.32
2023-01-09T07:45:42.901Z,8.35
2023-01-09T07:48:10.538Z,8.33
2023-01-09T07:50:37.027Z,8.36
2023-01-09T07:53:03.504Z,8.38
2023-01-09T07:55:30.060Z,8.40
2023-01-09T07:57:56.528Z,8.41
2023-01-09T08:00:23.050Z,8.41
2023-01-09T08:02:53.818Z,8.44
2023-01-09T08:05:21.157Z,8.45
2023-01-09T08:07:48.064Z,8.47
2023-01-09T08:10:14.871Z,8.50
2023-01-09T08:12:44.543Z,8.49
2023-01-09T08:15:11.728Z,8.51
2023-01-09T08:17:40.183Z,8.54
2023-01-09T08:20:06.773Z,8.57
2023-01-09T08:22:33.246Z,8.60
2023-01-09T08:24:59.751Z,8.66
2023-01-09T08:27:26.201Z,8.70
2023-01-09T08:29:52.701Z,8.74
2023-01-09T08:32:19.177Z,8.79
2023-01-09T08:34:45.731Z,8.85
2023-01-09T08:37:12.203Z,8.94
2023-01-09T08:39:38.793Z,9.03
2023-01-09T08:42:23.818Z,9.10
2023-01-09T08:45:08.981Z,9.14
2023-01-09T08:47:35.538Z,9.17
2023-01-09T08:50:02.303Z,9.22
2023-01-09T08:52:30.669Z,9.24
2023-01-09T08:54:57.346Z,9.24
2023-01-09T08:57:24.409Z,9.22
2023-01-09T08:59:50.953Z,9.20
2023-01-09T09:02:17.462Z,9.22
2023-01-09T09:04:44.433Z,9.23
2023-01-09T09:07:11.392Z,9.18
2023-01-09T09:09:37.852Z,9.16
2023-01-09T09:12:04.530Z,9.13
2023-01-09T09:14:49.538Z,9.09
2023-01-09T09:17:16.013Z,9.05
2023-01-09T09:19:42.808Z,9.01
2023-01-09T09:22:09.241Z,9.04
2023-01-09T09:24:35.719Z,8.96
2023-01-09T09:27:02.179Z,8.98
2023-01-09T09:29:28.656Z,8.99
2023-01-09T09:31:55.175Z,8.99
2023-01-09T09:34:22.596Z,8.98
2023-01-09T09:36:49.074Z,9.01
2023-01-09T09:39:15.612Z,9.02
2023-01-09T09:42:21.019Z,9.02
2023-01-09T09:45:08.022Z,9.02
2023-01-09T09:48:05.381Z,9.02
2023-01-09T09:51:14.439Z,9.02
2023-01-09T09:53:57.153Z,9.04
2023-01-09T09:56:24.248Z,9.06
2023-01-09T09:59:21.092Z,9.11
2023-01-09T10:02:01.012Z,9.08
2023-01-09T10:04:32.186Z,9.08
2023-01-09T10:07:06.678Z,9.09
2023-01-09T10:09:57.576Z,9.10
2023-01-09T10:12:31.709Z,9.08
2023-01-09T10:15:00.312Z,9.09
2023-01-09T10:17:47.385Z,9.10
2023-01-09T10:20:56.072Z,9.09
2023-01-09T10:23:49.811Z,9.08
2023-01-09T10:26:19.240Z,9.09
2023-01-09T10:29:13.933Z,9.08
2023-01-09T10:31:49.655Z,9.12
2023-01-09T10:34:30.355Z,9.17
2023-01-09T10:37:06.787Z,9.25
2023-01-09T10:40:25.750Z,9.33
2023-01-09T10:43:09.280Z,9.39
2023-01-09T10:45:47.138Z,9.44
2023-01-09T10:48:36.549Z,9.50
2023-01-09T10:51:16.281Z,9.54
2023-01-09T10:53:49.064Z,9.60
2023-01-09T10:56:18.950Z,9.66
2023-01-09T10:58:45.468Z,9.68
2023-01-09T11:01:11.945Z,9.75
2023-01-09T11:03:39.117Z,9.78
2023-01-09T11:06:26.450Z,9.83
2023-01-09T11:08:55.921Z,9.82
2023-01-09T11:11:37.079Z,9.85
2023-01-09T11:14:17.651Z,9.89
2023-01-09T11:17:04.456Z,9.90
2023-01-09T11:19:33.256Z,9.94
2023-01-09T11:22:17.065Z,9.95
2023-01-09T11:24:44.242Z,9.96
2023-01-09T11:27:13.725Z,9.96
2023-01-09T11:29:41.106Z,9.98
2023-01-09T11:32:21.188Z,10.02
2023-01-09T11:34:49.053Z,10.07
2023-01-09T11:37:25.292Z,10.11
2023-01-09T11:39:52.023Z,10.16
2023-01-09T11:42:41.115Z,10.18
2023-01-09T11:45:18.648Z,10.12
2023-01-09T11:47:45.377Z,10.14
2023-01-09T11:50:25.352Z,10.11
2023-01-09T11:53:17.689Z,10.16
2023-01-09T11:55:45.244Z,10.13
2023-01-09T11:58:16.789Z,10.11
2023-01-09T12:01:20.988Z,10.12
2023-01-09T12:03:53.389Z,10.14
2023-01-09T12:06:38.752Z,10.13
2023-01-09T12:09:07.196Z,10.15
2023-01-09T12:11:41.457Z,10.15
2023-01-09T12:14:37.436Z,10.21
2023-01-09T12:17:41.565Z,10.25
2023-01-09T12:20:21.148Z,10.26
2023-01-09T12:23:09.404Z,10.28
2023-01-09T12:25:45.081Z,10.33
2023-01-09T12:28:14.472Z,10.35
2023-01-09T12:31:02.770Z,10.39
2023-01-09T12:33:42.409Z,10.44
2023-01-09T12:36:29.801Z,10.46
2023-01-09T12:39:22.594Z,10.46
2023-01-09T12:42:19.552Z,10.44
2023-01-09T12:45:24.956Z,10.43
2023-01-09T12:47:52.743Z,10.45
2023-01-09T12:50:29.374Z,10.48
2023-01-09T12:53:13.936Z,10.49
2023-01-09T12:55:43.588Z,10.47
2023-01-09T12:58:31.712Z,10.46
2023-01-09T13:01:00.319Z,10.49
2023-01-09T13:03:37.658Z,10.51
2023-01-09T13:06:06.592Z,10.56
2023-01-09T13:08:39.650Z,10.63
2023-01-09T13:11:20.410Z,10.64
2023-01-09T13:14:06.235Z,10.64
2023-01-09T13:16:36.577Z,10.66
2023-01-09T13:19:18.642Z,10.64
2023-01-09T13:21:45.804Z,10.58
2023-01-09T13:24:33.729Z,10.58
2023-01-09T13:27:03.427Z,10.58
2023-01-09T13:29:37.386Z,10.58
2023-01-09T13:32:29.433Z,10.59
2023-01-09T13:34:57.586Z,10.58
2023-01-09T13:37:27.738Z,10.60
2023-01-09T13:40:00.227Z,10.60
2023-01-09T13:42:36.129Z,10.59
2023-01-09T13:45:26.504Z,10.57
2023-01-09T13:48:11.818Z,10.60
2023-01-09T13:50:39.000Z,10.59
2023-01-09T13:53:17.543Z,10.57
2023-01-09T13:55:59.593Z,10.57
2023-01-09T13:58:50.488Z,10.58
2023-01-09T14:01:36.004Z,10.57
2023-01-09T14:04:17.745Z,10.56
2023-01-09T14:07:17.691Z,10.53
2023-01-09T14:09:50.785Z,10.52
2023-01-09T14:12:19.529Z,10.51
2023-01-09T14:14:46.360Z,10.50
2023-01-09T14:17:27.109Z,10.49
2023-01-09T14:19:58.821Z,10.47
2023-01-09T14:22:27.336Z,10.45
2023-01-09T14:24:56.231Z,10.45
2023-01-09T14:27:53.747Z,10.43
2023-01-09T14:30:26.082Z,10.38
2023-01-09T14:33:17.223Z,10.36
2023-01-09T14:35:54.426Z,10.35
2023-01-09T14:38:31.239Z,10.34
2023-01-09T14:41:06.025Z,10.34
2023-01-09T14:43:41.045Z,10.34
2023-01-09T14:46:12.979Z,10.31
2023-01-09T14:48:57.503Z,10.29
2023-01-09T14:51:24.379Z,10.29
2023-01-09T14:53:51.945Z,10.28
2023-01-09T14:56:30.117Z,10.28
2023-01-09T14:59:12.604Z,10.27
2023-01-09T15:01:41.111Z,10.26
2023-01-09T15:04:27.391Z,10.21
2023-01-09T15:06:54.032Z,10.23
2023-01-09T15:09:24.585Z,10.23
2023-01-09T15:11:53.247Z,10.24
2023-01-09T15:14:40.497Z,10.23
2023-01-09T15:17:20.890Z,10.20
2023-01-09T15:19:48.220Z,10.17
2023-01-09T15:22:24.199Z,10.14
2023-01-09T15:24:50.625Z,10.12
2023-01-09T15:27:24.100Z,10.13
2023-01-09T15:29:51.615Z,10.09
2023-01-09T15:32:27.659Z,10.09
2023-01-09T15:34:55.214Z,10.07
2023-01-09T15:37:34.759Z,10.04
2023-01-09T15:40:04.287Z,10.04
2023-01-09T15:42:52.783Z,10.04
2023-01-09T15:45:35.216Z,10.03
2023-01-09T15:48:25.020Z,10.01
2023-01-09T15:51:10.371Z,9.99
2023-01-09T15:53:36.979Z,9.98
2023-01-09T15:56:07.979Z,9.97
2023-01-09T15:58:36.838Z,9.95
2023-01-09T16:01:26.092Z,9.92
2023-01-09T16:03:53.533Z,9.91
2023-01-09T16:06:28.864Z,9.89
2023-01-09T16:08:57.776Z,9.87
2023-01-09T16:11:32.912Z,9.86
2023-01-09T16:14:12.458Z,9.84
2023-01-09T16:16:39.389Z,9.82
2023-01-09T16:19:06.691Z,9.83
2023-01-09T16:21:35.595Z,9.80
2023-01-09T16:24:08.485Z,9.80
2023-01-09T16:26:34.982Z,9.79
2023-01-09T16:29:27.339Z,9.76
2023-01-09T16:31:59.719Z,9.73
2023-01-09T16:34:26.161Z,9.71
2023-01-09T16:36:52.594Z,9.69
2023-01-09T16:39:20.788Z,9.68
2023-01-09T16:42:05.872Z,9.67
2023-01-09T16:44:32.284Z,9.65
2023-01-09T16:46:58.916Z,9.62
2023-01-09T16:49:27.339Z,9.62
2023-01-09T16:51:54.091Z,9.61
2023-01-09T16:54:21.037Z,9.59
2023-01-09T16:56:49.243Z,9.59
2023-01-09T16:59:20.642Z,9.58
2023-01-09T17:01:51.074Z,9.60
2023-01-09T17:04:20.073Z,9.65
2023-01-09T17:06:48.485Z,9.68
2023-01-09T17:09:17.310Z,9.65
2023-01-09T17:11:43.793Z,9.65
2023-01-09T17:14:13.873Z,9.64
2023-01-09T17:16:45.969Z,9.62
2023-01-09T17:19:17.215Z,9.58
2023-01-09T17:21:43.752Z,9.55
2023-01-09T17:24:28.937Z,9.53
2023-01-09T17:27:15.021Z,9.51
2023-01-09T17:29:42.526Z,9.49
2023-01-09T17:32:16.829Z,9.44
2023-01-09T17:34:43.381Z,9.42
2023-01-09T17:37:17.697Z,9.40
2023-01-09T17:39:44.600Z,9.38
2023-01-09T17:42:11.307Z,9.36
2023-01-09T17:44:37.890Z,9.34
2023-01-09T17:47:04.422Z,9.36
2023-01-09T17:49:30.958Z,9.33
2023-01-09T17:51:57.609Z,9.32
2023-01-09T17:54:24.115Z,9.30
2023-01-09T17:56:51.171Z,9.32
2023-01-09T17:59:18.400Z,9.29
2023-01-09T18:01:45.253Z,9.27
2023-01-09T18:04:11.900Z,9.24
2023-01-09T18:06:38.553Z,9.23
2023-01-09T18:09:06.223Z,9.22
2023-01-09T18:11:32.737Z,9.22
2023-01-09T18:13:59.389Z,9.18
2023-01-09T18:16:27.713Z,9.15
2023-01-09T18:18:57.519Z,9.09
2023-01-09T18:21:26.426Z,9.05
2023-01-09T18:23:53.085Z,9.03
2023-01-09T18:26:22.375Z,9.00
2023-01-09T18:28:51.103Z,8.94
2023-01-09T18:31:22.057Z,8.88
2023-01-09T18:33:53.342Z,8.86
2023-01-09T18:36:22.148Z,8.82
2023-01-09T18:38:53.365Z,8.79
2023-01-09T18:41:20.627Z,8.75
2023-01-09T18:43:51.322Z,8.70
2023-01-09T18:46:23.942Z,8.65
2023-01-09T18:48:58.479Z,8.60
2023-01-09T18:51:26.574Z,8.57
2023-01-09T18:53:53.933Z,8.56
2023-01-09T18:56:20.788Z,8.54
2023-01-09T18:58:48.132Z,8.52
2023-01-09T19:01:15.453Z,8.51
2023-01-09T19:03:42.381Z,8.51
2023-01-09T19:06:09.055Z,8.50
2023-01-09T19:08:36.170Z,8.49
2023-01-09T19:11:03.132Z,8.48
2023-01-09T19:13:35.403Z,8.47
2023-01-09T19:16:03.263Z,8.45
2023-01-09T19:18:33.292Z,8.46
2023-01-09T19:20:59.728Z,8.44
2023-01-09T19:23:26.278Z,8.45
2023-01-09T19:25:53.640Z,8.43
2023-01-09T19:28:21.034Z,8.43
2023-01-09T19:30:47.501Z,8.41
2023-01-09T19:33:13.923Z,8.38
2023-01-09T19:35:40.447Z,8.36
2023-01-09T19:38:06.912Z,8.34
2023-01-09T19:40:33.473Z,8.30
2023-01-09T19:43:00.003Z,8.30
2023-01-09T19:45:26.550Z,8.28
2023-01-09T19:47:53.054Z,8.26
2023-01-09T19:50:19.634Z,8.27
2023-01-09T19:52:46.143Z,8.24
2023-01-09T19:55:13.927Z,8.22
2023-01-09T19:57:42.856Z,8.18
2023-01-09T20:00:14.369Z,8.12
2023-01-09T20:02:41.835Z,8.09
2023-01-09T20:05:09.433Z,8.00
2023-01-09T20:07:35.994Z,7.95
2023-01-09T20:10:02.615Z,7.92
2023-01-09T20:12:29.105Z,7.92
2023-01-09T20:14:55.587Z,7.92
2023-01-09T20:17:22.057Z,7.92
2023-01-09T20:19:48.508Z,7.93
2023-01-09T20:22:14.997Z,7.94
2023-01-09T20:24:41.899Z,7.95
2023-01-09T20:27:08.367Z,7.93
2023-01-09T20:29:34.866Z,7.92
2023-01-09T20:32:01.464Z,7.94
2023-01-09T20:34:28.953Z,7.92
2023-01-09T20:36:55.440Z,7.90
2023-01-09T20:39:22.028Z,7.88
2023-01-09T20:41:48.550Z,7.85
2023-01-09T20:44:15.857Z,7.82
2023-01-09T20:46:47.429Z,7.82
2023-01-09T20:49:16.029Z,7.80
2023-01-09T20:51:52.801Z,7.77
2023-01-09T20:54:21.277Z,7.74
2023-01-09T20:56:48.011Z,7.72
2023-01-09T20:59:17.208Z,7.72
2023-01-09T21:01:43.908Z,7.71
2023-01-09T21:04:10.469Z,7.68
2023-01-09T21:06:37.388Z,7.67
2023-01-09T21:09:05.381Z,7.68
2023-01-09T21:11:33.855Z,7.67
2023-01-09T21:14:00.359Z,7.68
2023-01-09T21:16:26.945Z,7.67
2023-01-09T21:18:54.510Z,7.63
2023-01-09T21:21:23.450Z,7.63
2023-01-09T21:23:52.020Z,7.64
2023-01-09T21:26:22.298Z,7.62
2023-01-09T21:28:50.248Z,7.61
2023-01-09T21:31:19.506Z,7.60
2023-01-09T21:33:46.973Z,7.59
2023-01-09T21:36:13.621Z,7.59
2023-01-09T21:38:40.115Z,7.60
2023-01-09T21:41:25.114Z,7.61
2023-01-09T21:44:10.207Z,7.62
2023-01-09T21:46:51.897Z,7.63
2023-01-09T21:49:19.415Z,7.63
2023-01-09T21:51:46.285Z,7.65
2023-01-09T21:54:12.748Z,7.65
2023-01-09T21:56:39.248Z,7.67
2023-01-09T21:59:05.732Z,7.69
2023-01-09T22:01:32.279Z,7.68
2023-01-09T22:03:59.133Z,7.69
2023-01-09T22:06:25.907Z,7.72
2023-01-09T22:08:52.645Z,7.72
2023-01-09T22:11:19.156Z,7.71
2023-01-09T22:13:49.423Z,7.73
2023-01-09T22:16:16.024Z,7.72
2023-01-09T22:18:42.527Z,7.73
2023-01-09T22:21:08.976Z,7.75
2023-01-09T22:23:35.442Z,7.74
2023-01-09T22:26:09.884Z,7.72
2023-01-09T22:28:36.376Z,7.72
2023-01-09T22:31:03.059Z,7.69
2023-01-09T22:33:29.553Z,7.67
2023-01-09T22:35:56.090Z,7.66
2023-01-09T22:38:22.566Z,7.63
2023-01-09T22:40:50.123Z,7.62
2023-01-09T22:43:17.319Z,7.62
2023-01-09T22:45:43.844Z,7.59
2023-01-09T22:48:10.360Z,7.58
2023-01-09T22:50:37.218Z,7.55
2023-01-09T22:53:03.735Z,7.53
2023-01-09T22:55:30.196Z,7.51
2023-01-09T22:57:56.649Z,7.53
2023-01-09T23:00:23.153Z,7.53
2023-01-09T23:02:49.831Z,7.54
2023-01-09T23:05:16.719Z,7.52
2023-01-09T23:07:43.273Z,7.52
2023-01-09T23:10:10.282Z,7.52
2023-01-09T23:12:36.774Z,7.53
2023-01-09T23:15:03.452Z,7.51
2023-01-09T23:17:29.982Z,7.51
2023-01-09T23:19:56.431Z,7.49
2023-01-09T23:22:22.908Z,7.48
2023-01-09T23:24:49.380Z,7.46
2023-01-09T23:27:15.859Z,7.43
2023-01-09T23:29:42.324Z,7.43
2023-01-09T23:32:08.807Z,7.42
2023-01-09T23:34:35.456Z,7.41
2023-01-09T23:37:04.011Z,7.40
2023-01-09T23:39:30.546Z,7.40
2023-01-09T23:42:15.580Z,7.39
2023-01-09T23:44:42.099Z,7.41
2023-01-09T23:47:08.557Z,7.41
2023-01-09T23:49:35.036Z,7.43
2023-01-09T23:52:06.135Z,7.44
2023-01-09T23:54:32.917Z,7.49
2023-01-09T23:56:59.381Z,7.48
2023-01-09T23:59:25.835Z,7.51
